x

8413320 - Bar Harbor, Me (atgm1) Weather Station

2:54pm - Tue 28th Mar 2017 All times are EDT. -4 hours from GMT.

  • Wind
    8mph, 9mph gusts
  • Sea Temp 35°f
  • 空気 Temp 35°f
  • Sea Pressure 1015.7mb
  • 8413320 - Bar Harbor, Me
  • 8413320 - Bar Harbor, Me

More Historic Weather Station data

Upgrade to MSW Pro to gain access to the past 30 days of data for over 8000 Wavebouys and Weather Stations around the globe.

Join Pro

Comparision Forecast

View Surf forecast
   
Tue 03/28 2:54pm 8 9 mph 1015.7mb 35f 35f
2:48pm 7 10 mph 1015.9mb 35f 35f
2:42pm 9 10 mph 1015.8mb 35f 35f
2:36pm 6 8 mph 1015.9mb 35f 35f
2:30pm 6 8 mph 1015.9mb 35f 35f
2:24pm 6 7 mph 1015.9mb 35f 35f
2:18pm 5 7 mph 1016mb 35f 35f
2:12pm 5 8 mph 1016.2mb 35f 35f
2:06pm 5 7 mph 1016.3mb 35f 35f
2:00pm 6 7 mph 1016.3mb 35f 35f
1:54pm 7 8 mph 1016.4mb 35f 35f
1:48pm 6 7 mph 1016.4mb 35f 35f
1:42pm 6 7 mph 1016.5mb 35f 35f
1:36pm 6 7 mph 1016.4mb 35f 35f
1:30pm 6
mph
1016.5mb 35f 34f
1:24pm 6 7 mph 1016.5mb 35f 34f
1:18pm 5 6 mph 1016.5mb 35f 35f
1:12pm 2 5 mph 1016.5mb 35f 34f
1:06pm 3 5 mph 1016.5mb 35f 34f
1:00pm 2 3 mph 1016.6mb 35f 34f
12:54pm 2 3 mph 1016.7mb 35f 34f
12:48pm 2 3 mph 1016.9mb 35f 34f
12:42pm 2 3 mph 1016.8mb 35f 34f
12:36pm 3 5 mph 1016.9mb 35f 34f
12:30pm 2 3 mph 1016.9mb 35f 35f
12:24pm 2
mph
1016.8mb 35f 35f
12:18pm  -  1 mph 1016.8mb 35f 35f
12:12pm 1
mph
1016.8mb 35f 35f
12:06pm  -  2 mph 1016.7mb 35f 35f
12:00pm 2 3 mph 1016.7mb 35f 34f
11:54am 1 3 mph 1016.6mb 35f 34f
11:48am 1 5 mph 1016.6mb 35f 34f
11:42am 3 7 mph 1016.5mb 35f 33f
11:36am 7 9 mph 1016.5mb 35f 33f
11:30am 9 11 mph 1016.4mb 35f 33f
11:24am 10 11 mph 1016.4mb 35f 33f
11:18am 8 11 mph 1016.4mb 35f 33f
11:12am 9 11 mph 1016.5mb 35f 33f
11:06am 10 11 mph 1016.6mb 35f 33f
11:00am 8 9 mph 1016.8mb 35f 33f
10:54am 8 9 mph 1016.8mb 35f 33f
10:48am 8 9 mph 1016.9mb 35f 33f
10:42am 8 9 mph 1017mb 35f 33f
10:36am 6 11 mph 1017.1mb 35f 33f
10:30am 8 9 mph 1017mb 35f 33f
10:24am 7 9 mph 1017mb 35f 33f
10:18am 7 8 mph 1017mb 35f 32f
10:06am 7 9 mph 1016.9mb 35f 33f
10:00am 8 10 mph 1016.8mb 35f 32f
9:54am 8 10 mph 1016.8mb 35f 32f
9:48am 8 10 mph 1016.9mb 35f 32f
9:42am 7 10 mph 1016.8mb 35f 32f
9:36am 9 10 mph 1016.9mb 35f 32f
9:30am 10 11 mph 1016.8mb 35f 32f
9:24am 9 11 mph 1016.6mb 35f 32f
9:18am 11 13 mph 1016.5mb 35f 32f
9:12am 9 10 mph 1016.6mb 35f 32f
9:06am 8 11 mph 1016.6mb 35f 32f
9:00am 9 13 mph 1016.7mb 35f 32f
8:54am 9 10 mph 1016.7mb 35f 32f
8:48am 8 10 mph 1016.8mb 35f 32f
8:42am 9 13 mph 1016.6mb 35f 32f
8:36am 9 11 mph 1016.5mb 35f 32f
8:30am 8 9 mph 1016.5mb 35f 32f
8:24am 8 10 mph 1016.7mb 35f 32f
8:18am 8 9 mph 1016.7mb 35f 32f
8:12am 9 11 mph 1016.6mb 35f 32f
8:06am 10 14 mph 1016.7mb 35f 32f
8:00am 10 11 mph 1016.5mb 35f 32f
7:54am 10 11 mph 1016.5mb 35f 32f
7:48am 8 10 mph 1016.7mb 35f 32f
7:42am 7 9 mph 1016.9mb 35f 32f
7:36am 7 10 mph 1017.1mb 35f 32f
7:30am 7 10 mph 1016.9mb 35f 32f
7:24am 8 9 mph 1016.7mb 35f 32f
7:18am 6 7 mph 1016.5mb 35f 32f
7:12am 5 6 mph 1016.4mb 35f 32f
7:06am 6 9 mph 1016.4mb 35f 32f
7:00am 7 8 mph 1016.3mb 35f 32f
6:54am 8 11 mph 1016mb 35f 32f
6:48am 8 10 mph 1015.9mb 35f 32f
6:42am 11 13 mph 1015.9mb 35f 32f
6:36am 7 10 mph 1015.8mb 35f 32f
6:30am 8 14 mph 1015.8mb 35f 32f
6:24am 11 14 mph 1015.6mb 35f 32f
6:18am 8 11 mph 1015.6mb 35f 32f
6:12am 7 11 mph 1015.6mb 35f 32f
6:06am 9 13 mph 1015.5mb 35f 32f
6:00am 9 13 mph 1015.5mb 35f 32f
5:54am 10 13 mph 1015.5mb 35f 32f
5:48am 10 11 mph 1015.6mb 35f 32f
5:42am 7 9 mph 1015.6mb 35f 32f
5:36am 8 10 mph 1015.7mb 35f 32f
5:30am 7 11 mph 1015.7mb 35f 32f
5:24am 9 11 mph 1015.5mb 35f 32f
5:18am 8 11 mph 1015.7mb 35f 32f
5:12am 7 10 mph 1015.6mb 35f 33f
5:06am 8 10 mph 1015.5mb 35f 33f
5:00am 5 7 mph 1015.5mb 35f 33f
4:54am 6 7 mph 1015.6mb 35f 33f
4:48am 7 9 mph 1015.7mb 35f 33f
4:42am 7 10 mph 1015.8mb 35f 33f
4:36am 6 8 mph 1015.7mb 35f 33f
4:30am 6 8 mph 1015.6mb 35f 33f
4:24am 5 10 mph 1015.7mb 35f 33f
4:18am 5 6 mph 1015.6mb 35f 33f
4:12am 6 7 mph 1015.5mb 35f 33f
4:06am 6 7 mph 1015.4mb 35f 33f
4:00am 6 8 mph 1015.4mb 35f 33f
3:54am 6 8 mph 1015.4mb 35f 33f
3:48am 5 7 mph 1015.3mb 35f 33f
3:42am 6 7 mph 1015.5mb 35f 33f
3:36am 3 5 mph 1015.4mb 35f 33f
3:30am 6 7 mph 1015.4mb 35f 33f
3:24am 6 7 mph 1015.3mb 35f 33f
3:18am 5 7 mph 1015.4mb 35f 33f
3:12am 6 8 mph 1015.4mb 35f 33f
3:06am 6 7 mph 1015.5mb 35f 33f
3:00am 5 6 mph 1015.8mb 35f 33f
2:54am 5 7 mph 1015.7mb 35f 33f
2:48am 6 7 mph 1015.7mb 35f 33f
2:42am 5 7 mph 1015.7mb 35f 33f
2:36am 6 8 mph 1015.8mb 35f 33f
2:30am 7 8 mph 1015.6mb 35f 33f
2:24am 7 8 mph 1015.5mb 35f 33f
2:18am 7 9 mph 1015.7mb 35f 33f
2:12am 7
mph
1015.8mb 35f 33f
2:06am 5 7 mph 1015.7mb 35f 33f
2:00am 3 7 mph 1015.7mb 35f 33f
1:54am 6 7 mph 1015.5mb 35f 33f
1:48am 6 8 mph 1015.5mb 35f 33f
1:42am 6 8 mph 1015.4mb 35f 33f
1:36am 7 8 mph 1015.5mb 35f 33f
1:30am 3 9 mph 1015.7mb 35f 33f
1:24am 6 7 mph 1015.5mb 35f 33f
1:18am 6 10 mph 1015.6mb 35f 33f
1:12am 8 11 mph 1015.6mb 35f 33f
1:06am 7 10 mph 1015.6mb 35f 33f
1:00am 5 8 mph 1015.7mb 35f 33f
12:54am 6 7 mph 1015.7mb 35f 33f
12:48am 7 11 mph 1015.7mb 35f 33f
12:42am 6 9 mph 1015.8mb 35f 33f
12:36am 8 9 mph 1015.8mb 35f 33f
12:30am 6 11 mph 1015.7mb 35f 33f
12:24am 8 10 mph 1015.7mb 35f 33f
12:18am 8 9 mph 1015.7mb 35f 33f
12:12am 7 9 mph 1015.7mb 35f 33f
12:06am 6 9 mph 1015.9mb 35f 33f
12:00am 6 10 mph 1016mb 35f 33f
Mon 03/27 11:54pm 10 13 mph 1015.9mb 35f 33f
11:48pm 10 14 mph 1016mb 35f 33f
11:42pm 8 11 mph 1016mb 35f 33f
11:36pm 11 13 mph 1016.1mb 35f 33f
11:30pm 9 14 mph 1016.1mb 35f 33f
11:24pm 10 13 mph 1016.3mb 35f 33f
11:18pm 11 15 mph 1016.3mb 35f 33f
11:12pm 13 14 mph 1016.4mb 35f 33f
11:06pm 10 13 mph 1016.5mb 35f 33f
11:00pm 9 14 mph 1016.5mb 35f 33f
10:54pm 11 13 mph 1016.5mb 35f 33f
10:48pm 10 13 mph 1016.6mb 35f 33f
10:42pm 11 14 mph 1016.7mb 35f 33f
10:36pm 9 11 mph 1016.8mb 35f 33f
10:30pm 10 13 mph 1016.8mb 35f 33f
10:24pm 14 17 mph 1016.9mb 35f 33f
10:18pm 13 16 mph 1017mb 35f 33f
10:12pm 11 14 mph 1017.1mb 35f 33f
10:06pm 11 15 mph 1017.1mb 35f 33f
10:00pm 15 20 mph 1017.1mb 35f 33f
9:54pm 13 15 mph 1017.1mb 35f 33f
9:48pm 10 15 mph 1017.2mb 35f 33f
9:42pm 14 16 mph 1017.4mb 35f 33f
9:36pm 14 15 mph 1017.3mb 35f 33f
9:30pm 11 17 mph 1017.5mb 35f 33f
9:24pm 15 18 mph 1017.6mb 35f 33f
9:18pm 13 18 mph 1017.7mb 35f 33f
9:12pm 14 17 mph 1017.7mb 35f 33f
9:06pm 15 18 mph 1017.7mb 35f 33f
9:00pm 16 20 mph 1017.8mb 35f 33f
8:54pm 15 21 mph 1017.7mb 35f 33f
8:48pm 16 20 mph 1017.9mb 35f 33f
8:42pm 16 21 mph 1018mb 35f 33f
8:36pm 18 21 mph 1018mb 35f 33f
8:30pm 18 22 mph 1018mb 35f 33f
8:24pm 17 22 mph 1018.1mb 35f 33f
8:18pm 17 20 mph 1018.2mb 35f 33f
8:12pm 17 20 mph 1018.2mb 35f 33f
8:06pm 17 23 mph 1018.2mb 35f 33f
8:00pm 21 23 mph 1018.2mb 35f 33f
7:54pm 18 21 mph 1018.3mb 35f 33f
7:48pm 16 20 mph 1018.5mb 35f 33f
7:42pm 17 20 mph 1018.6mb 35f 33f
7:36pm 14 21 mph 1018.8mb 35f 33f
7:30pm 16 20 mph 1018.7mb 35f 33f
7:24pm 17 21 mph 1018.6mb 35f 33f
7:18pm 17 21 mph 1018.6mb 35f 33f
7:12pm 17 21 mph 1018.7mb 35f 33f
7:06pm 18 22 mph 1018.8mb 35f 33f
7:00pm 16 20 mph 1018.9mb 35f 33f
6:54pm 17 20 mph 1019.1mb 35f 33f
6:48pm 17 22 mph 1019.1mb 35f 33f
6:42pm 17 21 mph 1019.1mb 35f 33f
6:36pm 18 21 mph 1019.3mb 35f 33f
6:30pm 17 20 mph 1019.2mb 35f 33f
6:24pm 17 20 mph 1019.4mb 35f 33f
6:18pm 17 22 mph 1019.6mb 35f 33f
6:12pm 16 21 mph 1019.6mb 35f 33f
6:06pm 16 18 mph 1019.6mb 35f 33f
6:00pm 14 16 mph 1019.7mb 35f 33f
5:54pm 11 14 mph 1019.8mb 35f 33f
5:48pm 13 15 mph 1019.8mb 35f 32f
5:42pm 10 13 mph 1019.9mb 35f 32f
5:36pm 10 13 mph 1020mb 35f 32f
5:30pm 11 14 mph 1020.1mb 35f 32f
5:24pm 11 17 mph 1020.2mb 35f 32f
5:18pm 11 16 mph 1020.2mb 35f 32f
5:12pm 14 16 mph 1020.3mb 35f 32f
5:06pm 11 20 mph 1020.3mb 35f 32f
5:00pm 14 20 mph 1020.4mb 35f 32f
4:54pm 16 21 mph 1020.3mb 35f 32f
4:48pm 16 25 mph 1020.6mb 35f 32f
4:42pm 20 24 mph 1020.4mb 35f 33f
4:36pm 23 28 mph 1020.4mb 35f 33f
4:30pm 21 25 mph 1020.4mb 35f 33f
4:24pm 21 28 mph 1020.4mb 35f 33f
4:18pm 22 28 mph 1020.4mb 35f 33f
4:12pm 21 26 mph 1020.6mb 35f 33f
4:06pm 20 24 mph 1020.8mb 35f 33f
4:00pm 20 26 mph 1020.7mb 35f 33f
3:54pm 20 24 mph 1020.9mb 35f 33f
3:48pm 20 23 mph 1021.2mb 35f 33f
3:42pm 15 21 mph 1021.4mb 35f 33f
3:36pm 18 25 mph 1021.1mb 35f 33f
3:30pm 21 28 mph 1021mb 35f 33f
3:24pm 22 28 mph 1021mb 35f 33f
3:18pm 18 26 mph 1021.1mb 35f 33f
3:12pm 20 29 mph 1021.3mb 35f 33f
3:06pm 21 29 mph 1021.5mb 35f 33f
3:00pm 22 26 mph 1021.9mb 35f 33f
2:54pm 22 28 mph 1022.3mb 35f 33f
2:48pm 21 25 mph 1022.8mb 35f 33f
2:42pm 17 25 mph 1023mb 35f 33f
2:36pm 16 23 mph 1023.1mb 35f 33f
2:30pm 18 24 mph 1023mb - 33f
2:24pm 18 25 mph 1023mb - 33f
2:18pm 22 29 mph 1023.3mb 35f 33f
2:12pm 21 29 mph 1022.9mb 35f 33f
2:06pm 23 28 mph 1023.3mb 35f 33f
2:00pm 23 28 mph 1023.5mb 35f 34f
1:54pm 22 25 mph 1023.5mb 35f 33f
1:48pm 18 26 mph 1023.5mb 35f 33f
1:42pm 22 28 mph 1023.6mb 35f 33f
1:36pm 20 24 mph 1023.6mb 35f 33f
1:30pm 20 28 mph 1023.8mb 35f 33f
1:24pm 22 28 mph 1023.9mb 35f 33f
1:18pm 23 25 mph 1024mb 35f 33f
1:12pm 16 25 mph 1024.5mb 35f 33f
1:06pm 17 24 mph 1024.6mb 35f 33f
1:00pm 20 25 mph 1024.6mb 35f 33f
12:54pm 17 25 mph 1024.8mb 35f 33f
12:48pm 20 24 mph 1025mb 35f 33f
12:42pm 17 24 mph 1025.1mb 35f 33f
12:36pm 21 25 mph 1025.1mb 35f 34f
12:30pm 20 24 mph 1025.1mb 35f 34f
12:24pm 18 24 mph 1025.2mb 35f 34f
12:18pm 20 25 mph 1025.2mb 35f 34f
12:12pm 22 26 mph 1025.4mb 35f 34f
12:06pm 17 21 mph 1025.4mb 35f 34f
12:00pm 20 23 mph 1025.4mb 35f 34f
11:54am 18 23 mph 1025.3mb 35f 34f
11:48am 20 22 mph 1025.3mb 35f 34f
11:42am 20 23 mph 1025.3mb 35f 34f
11:36am 18 23 mph 1025.3mb 35f 34f
11:30am 18 24 mph 1025.4mb 35f 34f
11:24am 20 23 mph 1025.4mb 35f 34f
11:18am 18 24 mph 1025.6mb 35f 34f
11:12am 18 23 mph 1025.6mb 35f 34f
11:06am 20 23 mph 1025.8mb 35f 34f
11:00am 21 24 mph 1025.8mb 35f 34f
10:54am 21 24 mph 1026mb 35f 34f
10:48am 17 23 mph 1026mb 35f 34f
10:42am 21 23 mph 1026.1mb 35f 34f
10:36am 18 23 mph 1026.2mb 35f 34f
10:30am 20 24 mph 1026.4mb 35f 34f
10:24am 18 22 mph 1026.5mb 35f 34f
10:18am 16 21 mph 1026.5mb 35f 34f
10:12am 20 22 mph 1026.5mb 35f 34f
10:06am 20 22 mph 1026.5mb 35f 34f
10:00am 17 21 mph 1026.8mb 35f 34f
9:54am 16 21 mph 1026.8mb 35f 34f
9:48am 16 22 mph 1026.8mb 35f 34f
9:42am 16 22 mph 1026.8mb 35f 34f
9:36am 15 21 mph 1026.8mb 35f 34f
9:30am 15 21 mph 1026.8mb 35f 34f
9:24am 16 22 mph 1026.8mb 35f 34f
9:18am 15 20 mph 1026.9mb 35f 34f
9:12am 15 20 mph 1026.8mb 35f 34f
9:06am 16 20 mph 1026.9mb 35f 34f
9:00am 16 18 mph 1027.1mb 35f 34f
8:54am 15 17 mph 1027.2mb 35f 34f
8:48am 13 18 mph 1027.1mb 35f 34f
8:42am 13 17 mph 1027.1mb 35f 34f
8:36am 13 16 mph 1026.9mb 35f 34f
8:30am 10 17 mph 1027.1mb 35f 34f
8:24am 14 17 mph 1027mb 35f 34f
8:18am 13 16 mph 1027mb 35f 33f
8:12am 13 16 mph 1027.1mb 35f 33f
8:06am 15 17 mph 1027mb 35f 33f
8:00am 14 20 mph 1027.1mb 35f 33f
7:54am 20 22 mph 1027mb 35f 33f
7:48am 16 20 mph 1027mb 35f 33f
7:42am 14 16 mph 1027.4mb 35f 33f
7:36am 11 15 mph 1027.5mb 35f 32f
7:30am 9 14 mph 1027.3mb 35f 32f
7:24am 10 13 mph 1027.3mb 35f 32f
7:18am 11 13 mph 1027.3mb 35f 31f
7:12am 10 13 mph 1027.3mb 35f 31f
7:06am 10 13 mph 1027.4mb 35f 31f
7:00am 8 13 mph 1027.5mb 35f 31f
6:54am 9 13 mph 1027.6mb 35f 31f
6:48am 9 13 mph 1027.7mb 35f 31f
6:42am 8 11 mph 1027.8mb 35f 31f
6:36am 9 13 mph 1027.8mb 35f 31f
6:30am 10 13 mph 1027.9mb 35f 30f
6:24am 10 13 mph 1028mb 35f 31f
6:18am 9 14 mph 1028.1mb 35f 30f
6:12am 9 13 mph 1028mb 35f 30f
6:06am 11 13 mph 1028.1mb 35f 30f
6:00am 10 13 mph 1028.2mb 35f 30f
5:54am 7 11 mph 1028.2mb 35f 30f
5:48am 6 9 mph 1028.3mb 35f 30f
5:42am 5 7 mph 1028.4mb 35f 30f
5:36am 3 7 mph 1028.6mb 35f 30f
5:30am 5 6 mph 1028.6mb 35f 29f
5:24am  -  2 mph 1028.7mb 35f 29f
5:18am 2 3 mph 1028.7mb 35f 29f
5:12am 1 3 mph 1028.7mb 35f 29f
5:06am 3 5 mph 1028.6mb 35f 29f
5:00am 3
mph
1028.6mb 35f 29f
4:54am  -  3 mph 1028.7mb 35f 29f
4:48am 2 6 mph 1028.7mb 35f 29f
4:42am 3 6 mph 1028.7mb 35f 29f
4:36am 2 5 mph 1028.7mb 35f 29f
4:30am 2 5 mph 1028.7mb 35f 29f
4:24am 2 3 mph 1028.8mb 35f 29f
4:18am 2 5 mph 1028.8mb 35f 30f
4:12am 2 6 mph 1028.9mb 35f 30f
4:06am 2 6 mph 1028.8mb 35f 31f
4:00am 3
mph
1028.7mb 35f 31f
3:54am  -  1 mph 1028.7mb 35f 32f
3:48am  -  1 mph 1028.8mb 35f 32f
3:42am  -  1 mph 1028.9mb 35f 32f
3:36am 1 2 mph 1028.9mb 35f 32f
3:30am  -  1 mph 1029mb 35f 32f
3:24am  -  1 mph 1029.1mb 35f 32f
3:18am  -  1 mph 1029.2mb 35f 32f
3:12am 1 2 mph 1029.2mb 35f 32f
3:06am 1
mph
1029.2mb 35f 32f
3:00am 1 2 mph 1029.3mb 35f 32f
2:54am 1 2 mph 1029.5mb 35f 32f
2:48am  -  1 mph 1029.5mb 35f 32f
2:42am  -  mph 1029.5mb 35f 32f
2:36am  -  2 mph 1029.5mb 35f 32f
2:30am 2
mph
1029.6mb 35f 32f
2:24am 1 2 mph 1029.6mb 35f 32f
2:18am 2 3 mph 1029.6mb 35f 32f
2:12am 2
mph
1029.7mb 35f 32f
2:06am 1 2 mph 1029.6mb 35f 32f
2:00am  -  2 mph 1029.5mb 35f 32f
1:54am  -  2 mph 1029.5mb 35f 32f
1:48am 2 3 mph 1029.6mb 35f 32f
1:42am 2 3 mph 1029.5mb 35f 32f
1:36am 3 6 mph 1029.5mb 35f 32f
1:30am 3 5 mph 1029.5mb 35f 32f
1:24am 3 5 mph 1029.5mb 35f 32f
1:18am 2 3 mph 1029.6mb 35f 32f
1:12am 3 5 mph 1029.6mb 35f 32f
1:06am 3 5 mph 1029.6mb 35f 32f
1:00am 3
mph
1029.6mb 35f 32f
12:54am 2 3 mph 1029.7mb 35f 32f
12:48am 3
mph
1029.7mb 35f 32f
12:42am 3
mph
1029.8mb 35f 32f
12:36am 2 3 mph 1029.8mb 35f 32f
12:30am  -  1 mph 1029.8mb 35f 32f
12:24am  -  mph 1029.9mb 35f 32f
12:18am  -  mph 1030.1mb 35f 32f
12:12am  -  2 mph 1030.2mb 35f 32f
12:06am 2 3 mph 1030.1mb 35f 32f
12:00am 3 5 mph 1029.9mb 35f 32f
Sun 03/26 11:54pm 3 6 mph 1029.9mb 35f 32f
11:48pm 5 6 mph 1030mb 35f 32f
11:42pm 5
mph
1030.2mb 35f 32f
11:36pm 3 5 mph 1030.3mb 35f 32f
11:30pm 2 5 mph 1030.3mb 35f 32f
11:24pm 3 5 mph 1030.4mb 35f 32f
11:18pm 5 6 mph 1030.6mb 35f 32f
11:12pm 5 6 mph 1030.6mb 35f 32f
11:06pm 2 5 mph 1030.7mb 35f 32f
11:00pm 2 3 mph 1030.8mb 35f 32f
10:54pm 2 3 mph 1030.9mb 35f 32f
10:48pm 2
mph
1030.9mb 35f 32f
10:42pm 2 3 mph 1031mb 35f 31f
10:36pm 2
mph
1031.1mb 35f 31f
10:30pm 2 3 mph 1031mb 35f 31f
10:24pm 2 5 mph 1031.1mb 35f 31f
10:18pm 2 3 mph 1031.1mb 35f 31f
10:12pm 2 3 mph 1031.1mb 35f 31f
10:06pm  -  3 mph 1031.1mb 35f 31f
10:00pm 1 2 mph 1031.2mb 35f 31f
9:54pm 2 5 mph 1031.2mb 35f 31f
9:48pm 2 5 mph 1031.2mb 35f 31f
9:42pm  -  1 mph 1031.4mb 35f 31f
9:36pm  -  3 mph 1031.5mb 35f 31f
9:30pm 2 5 mph 1031.6mb 35f 31f
9:24pm 2 5 mph 1031.5mb 35f 31f
9:18pm 3 5 mph 1031.3mb 35f 31f
9:12pm  -  7 mph 1031.4mb 35f 31f
9:06pm 6 9 mph 1031.5mb 35f 31f
9:00pm 3 6 mph 1031.7mb 35f 31f
8:54pm 3 7 mph 1031.7mb 35f 31f
8:48pm 6 8 mph 1031.6mb 35f 31f
8:42pm 5 7 mph 1031.7mb 35f 31f
8:36pm 5 9 mph 1031.7mb 35f 31f
8:30pm 5 8 mph 1031.7mb 35f 31f
8:24pm 5 9 mph 1031.7mb 35f 31f
8:18pm 7 10 mph 1031.6mb 35f 31f
8:12pm 5 10 mph 1031.6mb 35f 31f
8:06pm 5 8 mph 1031.6mb 35f 31f
8:00pm 5 8 mph 1031.7mb 35f 31f
7:54pm 7 9 mph 1031.7mb 35f 31f
7:48pm 6 9 mph 1031.7mb 35f 31f
7:42pm 2
mph
1031.7mb 35f 31f
7:36pm 2 3 mph 1031.6mb 35f 31f
7:30pm 2 3 mph 1031.7mb 35f 30f
7:24pm 2 3 mph 1031.6mb 35f 30f
7:18pm 1 2 mph 1031.6mb 35f 31f
7:12pm  -  3 mph 1031.6mb 35f 31f
7:06pm 2 3 mph 1031.7mb 35f 31f
7:00pm  -  5 mph 1031.7mb 35f 31f
6:54pm 2 5 mph 1031.7mb 35f 32f
6:48pm 2 5 mph 1031.7mb 35f 32f
6:42pm 2 3 mph 1031.7mb 35f 32f
6:36pm  -  2 mph 1031.6mb 35f 33f
6:30pm  -  3 mph 1031.5mb 35f 33f
6:24pm 1 3 mph 1031.5mb 35f 34f
6:18pm  -  2 mph 1031.6mb 35f 35f
6:12pm 3 6 mph 1031.5mb 35f 34f
6:06pm 5 7 mph 1031.5mb 35f 35f
6:00pm 5 7 mph 1031.4mb 35f 36f
5:54pm 3 7 mph 1031.4mb 36f 37f
5:48pm 6 7 mph 1031.3mb 36f 36f
5:42pm 5 7 mph 1031.4mb 35f 36f
5:36pm 3 9 mph 1031.4mb 35f 37f
5:30pm 3 6 mph 1031.4mb 35f 37f
5:24pm 2 5 mph 1031.4mb 35f 37f
5:18pm 3 5 mph 1031.4mb 35f 36f
5:12pm 5 8 mph 1031.3mb 35f 37f
5:06pm 6 13 mph 1031.3mb 35f 36f
5:00pm 5 8 mph 1031.3mb 35f 36f
4:54pm 5 7 mph 1031.4mb 35f 37f
4:48pm 5 9 mph 1031.3mb 35f 36f
4:42pm 8 11 mph 1031.3mb 35f 35f
4:36pm 7 11 mph 1031.4mb 35f 35f
4:30pm 7 11 mph 1031.5mb 35f 35f
4:24pm 6 11 mph 1031.5mb 35f 35f
4:18pm 9 11 mph 1031.6mb 35f 35f
4:12pm 8 11 mph 1031.6mb 35f 35f
4:06pm 8 11 mph 1031.6mb 35f 35f
4:00pm 9 14 mph 1031.6mb 35f 35f
3:54pm 6 13 mph 1031.6mb 35f 35f
3:48pm 7 10 mph 1031.6mb 35f 36f
3:42pm 6 9 mph 1031.7mb 35f 36f
3:36pm 7 10 mph 1031.8mb 35f 35f
3:30pm 8 14 mph 1031.8mb 35f 35f
3:24pm 6 9 mph 1031.8mb 35f 35f
3:18pm 7 10 mph 1031.9mb 35f 34f
3:12pm 7 13 mph 1032mb 35f 34f
3:06pm 11 15 mph 1032.1mb 35f 33f
3:00pm 6 13 mph 1032.3mb 35f 35f
2:54pm 10 14 mph 1032.2mb 35f 33f
2:48pm 11 15 mph 1032.3mb 35f 32f
2:42pm 7 14 mph 1032.3mb 35f 34f
2:36pm 11 17 mph 1032.4mb 35f 32f
2:30pm 14 17 mph 1032.6mb 35f 31f
2:24pm 13 15 mph 1032.6mb 35f 32f
2:18pm 11 15 mph 1032.7mb 35f 32f
2:12pm 11 14 mph 1032.8mb 35f 31f
2:06pm 10 14 mph 1032.8mb 35f 32f
2:00pm 9 14 mph 1032.9mb 35f 32f
1:54pm 8 11 mph 1033mb 35f 33f
1:48pm 3 6 mph 1033mb 35f 34f
1:42pm 2 5 mph 1033.1mb 35f 34f
1:36pm 1 2 mph 1033.1mb 35f 34f
1:30pm 3 5 mph 1033.1mb 35f 33f
1:24pm 3 5 mph 1033.2mb 35f 33f
1:18pm 5 7 mph 1033.3mb 35f 33f
1:12pm 5
mph
1033.3mb 35f 32f
1:06pm 5 6 mph 1033.4mb 35f 32f
1:00pm 5 6 mph 1033.5mb 35f 32f
12:54pm 3 5 mph 1033.6mb 35f 31f
12:48pm 3 6 mph 1033.6mb 35f 31f
12:42pm 6
mph
1033.6mb 35f 31f
12:36pm 3 6 mph 1033.7mb 35f 31f
12:30pm 2 3 mph 1033.8mb 35f 30f
12:24pm 5 6 mph 1033.9mb 35f 30f
12:18pm 5 7 mph 1034mb 35f 29f
12:12pm 5 6 mph 1034mb 35f 29f
12:06pm 3 6 mph 1034.2mb 35f 29f
12:00pm 3 6 mph 1034.3mb 35f 29f
11:54am 6 8 mph 1034.3mb 35f 29f
11:48am 5 7 mph 1034.4mb 35f 29f
11:42am 6 8 mph 1034.4mb 34f 28f
11:36am 6 7 mph 1034.5mb 34f 28f
11:30am 5 8 mph 1034.6mb 34f 28f
11:24am 3 6 mph 1034.6mb 34f 28f
11:18am 3 9 mph 1034.6mb 34f 28f
11:12am 6 7 mph 1034.6mb 34f 28f
11:06am 7 10 mph 1034.7mb 34f 28f
11:00am 5 10 mph 1034.8mb 34f 27f
10:54am 6 8 mph 1034.7mb 34f 27f
10:48am 6 10 mph 1034.9mb 34f 27f
10:42am 6 10 mph 1035mb 34f 27f
10:36am 6 8 mph 1035.1mb 34f 27f
10:30am 5 6 mph 1035.1mb 34f 27f
10:24am 5 7 mph 1035.1mb 34f 27f
10:18am 3 9 mph 1035.1mb 34f 27f
10:12am 6 9 mph 1035.1mb 34f 26f
10:06am 8 10 mph 1035.1mb 34f 26f
10:00am 7 10 mph 1035mb 34f 26f
9:54am 8 10 mph 1034.9mb 34f 25f
9:48am 7 9 mph 1035.1mb 35f 25f
9:42am 8 10 mph 1035.2mb 35f 25f
9:36am 8 10 mph 1035.2mb 35f 25f
9:30am 6 11 mph 1035.2mb 35f 25f
9:24am 6 10 mph 1035mb 35f 25f
9:18am 8 11 mph 1035.1mb 35f 25f
9:12am 8 14 mph 1035.2mb 35f 25f
9:06am 8 15 mph 1035.2mb 35f 24f
9:00am 11 15 mph 1035mb 35f 24f
8:54am 9 15 mph 1035.1mb 35f 24f
8:48am 9 15 mph 1035.1mb 35f 24f
8:42am 10 14 mph 1035mb 35f 24f
8:36am 9 14 mph 1035mb 35f 24f
8:30am 10 15 mph 1035mb 35f 24f
8:24am 11 14 mph 1034.9mb 35f 24f
8:18am 10 14 mph 1034.9mb 35f 24f
8:12am 10 14 mph 1034.8mb 35f 24f
8:06am 8 11 mph 1034.9mb 35f 24f
8:00am 8 10 mph 1034.9mb 35f 24f
7:54am 8 9 mph 1034.9mb 35f 24f
7:48am 7 11 mph 1034.8mb 35f 24f
7:42am 8 11 mph 1034.7mb 35f 24f
7:36am 9 14 mph 1034.5mb 35f 24f
7:30am 8 13 mph 1034.5mb 35f 25f
7:24am 7 11 mph 1034.6mb 35f 25f
7:18am 9 14 mph 1034.5mb 35f 25f
7:12am 8 14 mph 1034.4mb 35f 25f
7:06am 8 13 mph 1034.3mb 35f 25f
7:00am 7 14 mph 1034.3mb 35f 25f
6:54am 7 13 mph 1034.1mb 35f 25f
6:48am 7 10 mph 1034.1mb 35f 25f
6:42am 3 10 mph 1034mb 35f 25f
6:36am 6 13 mph 1033.9mb 35f 25f
6:30am 8 11 mph 1033.7mb 35f 25f
6:24am 10 13 mph 1033.6mb 35f 25f
6:18am 6 10 mph 1033.6mb 35f 25f
6:12am 7 13 mph 1033.5mb 35f 26f
6:06am 8 13 mph 1033.4mb 35f 26f
6:00am 7 13 mph 1033.3mb 35f 26f
5:54am 10 14 mph 1033.2mb 35f 26f
5:48am 7 11 mph 1033.1mb 35f 26f
5:42am 6 11 mph 1032.9mb 35f 26f
5:36am 6 13 mph 1032.7mb 35f 26f
5:30am 9 13 mph 1032.5mb 35f 26f
5:24am 8 14 mph 1032.5mb 35f 26f
5:18am 8 13 mph 1032.5mb 35f 27f
5:12am 7 14 mph 1032.7mb 35f 27f
5:06am 10 15 mph 1032.4mb 35f 27f
5:00am 9 16 mph 1032.2mb 35f 27f
4:54am 6 13 mph 1032.2mb 35f 27f
4:48am 5 9 mph 1032.1mb 35f 28f
4:42am 5 10 mph 1032mb 35f 28f
4:36am 5 14 mph 1031.9mb 35f 28f
4:30am 8 15 mph 1031.4mb 35f 28f
4:24am 8 11 mph 1031.7mb 35f 28f
4:18am 7 11 mph 1031.6mb 35f 28f
4:12am 9 15 mph 1031.5mb 35f 28f
4:06am 9 17 mph 1031.5mb 35f 28f
4:00am 13 17 mph 1031.4mb 35f 29f
3:54am 11 16 mph 1031.4mb 35f 29f
3:48am 13 18 mph 1031.2mb 35f 29f
3:42am 14 17 mph 1031.1mb 35f 29f
3:36am 9 15 mph 1031.1mb 35f 29f
3:30am 7 11 mph 1031.2mb 35f 29f
3:24am 8 13 mph 1030.9mb 35f 29f
3:18am 9 14 mph 1030.8mb 35f 29f
3:12am 7 10 mph 1030.7mb 35f 29f
3:06am 6 9 mph 1030.5mb 35f 29f
3:00am 7 10 mph 1030.4mb 35f 30f
2:54am 6 10 mph 1030.5mb 35f 30f
2:48am 8 10 mph 1030.5mb 35f 30f
2:42am 6 9 mph 1030.4mb 35f 30f
2:36am 7 13 mph 1030.4mb 35f 30f
2:30am 6 10 mph 1030.4mb 35f 30f
2:24am 6 9 mph 1030.5mb 35f 31f
2:18am 5 10 mph 1030.3mb 35f 31f
2:12am 7 11 mph 1030.2mb 35f 31f
2:06am 5 8 mph 1030.3mb 35f 31f
2:00am 3 8 mph 1030.2mb 35f 31f
1:54am 5 8 mph 1030.2mb 35f 31f
1:48am 5 7 mph 1030mb 35f -
1:42am 6 11 mph 1029.9mb 35f -
1:36am 5 6 mph 1029.9mb 35f -
1:30am 5 7 mph 1030mb 35f 31f
1:24am 5 8 mph 1029.9mb 35f 31f
1:18am 7 8 mph 1029.9mb 35f 31f
1:12am 7 10 mph 1029.9mb 35f 32f
1:06am 6 7 mph 1029.8mb 35f 32f
1:00am 6 8 mph 1029.8mb 35f 32f
12:54am 7 8 mph 1029.7mb 35f 32f
12:42am 2 5 mph 1029.6mb 35f 32f
12:36am 3 9 mph 1029.5mb 35f 33f
12:30am 6 8 mph 1029.4mb 35f 33f
12:24am 7 10 mph 1029.4mb 35f 33f
12:18am 6 9 mph 1029.3mb 35f 33f
12:12am 6 8 mph 1029.2mb 35f 33f
12:06am 6 7 mph 1029.2mb 35f 33f
12:00am 2 7 mph 1029.1mb 35f 33f
Sat 03/25 11:54pm 3 6 mph 1029mb 35f 34f
11:48pm 6 8 mph 1029.1mb 35f 34f
11:42pm 5 8 mph 1029mb 35f 34f
11:36pm 5 9 mph 1028.8mb 35f 34f
11:30pm 6 8 mph 1028.8mb 35f 34f
11:24pm 3 8 mph 1028.7mb 35f 34f
11:18pm 6 10 mph 1028.5mb 35f 34f
11:12pm 8 10 mph 1028.3mb 35f 34f
11:06pm 8 13 mph 1028.2mb 35f 35f
11:00pm 6 13 mph 1028.1mb 35f 34f
10:54pm 9 13 mph 1028mb 36f 35f
10:48pm 9 11 mph 1027.9mb 35f 35f
10:42pm 7 11 mph 1027.9mb 35f 34f
10:36pm 8 9 mph 1027.9mb 35f 35f
10:30pm 7 9 mph 1027.7mb 35f 35f
10:24pm 8 9 mph 1027.5mb 35f 35f
10:18pm 7 8 mph 1027.4mb 35f 36f
10:12pm 8 9 mph 1027.3mb 35f 36f
10:06pm 8 9 mph 1027.2mb 35f 37f
10:00pm 8 10 mph 1027.1mb 35f 37f
9:54pm 8 9 mph 1027.1mb 35f 37f
9:48pm 8 11 mph 1027mb 35f 37f
9:42pm 10 11 mph 1027mb 35f 37f
9:36pm 9 10 mph 1026.9mb 35f 38f
9:30pm 9 10 mph 1026.7mb 35f 38f
9:24pm 8 9 mph 1026.6mb 35f 38f
9:18pm 7 9 mph 1026.5mb 35f 38f
9:12pm 6 8 mph 1026.4mb 35f 38f
9:06pm 8 9 mph 1026.3mb 35f 38f
9:00pm 7 8 mph 1026.1mb 35f 38f
8:54pm 6 7 mph 1026mb 35f 38f
8:48pm 7 8 mph 1026mb 35f 38f
8:42pm 6 7 mph 1025.9mb 35f 38f
8:36pm 6 7 mph 1025.8mb 35f 38f
8:30pm 6 8 mph 1025.6mb 35f 38f
8:24pm 7 8 mph 1025.5mb 35f 39f
8:18pm 7 10 mph 1025.4mb 35f 39f
8:12pm 8 11 mph 1025.3mb 35f 39f
8:06pm 9 11 mph 1025.1mb 35f 40f
8:00pm 8 10 mph 1024.9mb 35f 40f
7:54pm 8 10 mph 1024.8mb 35f 39f
7:48pm 8 11 mph 1024.6mb 35f 40f
7:42pm 7 9 mph 1024.5mb 35f 40f
7:36pm 7 9 mph 1024.4mb 35f 40f
7:30pm 6 8 mph 1024.3mb 35f 40f
7:24pm 6 8 mph 1024.2mb 35f 40f
7:18pm 6 10 mph 1024.1mb 35f 40f
7:12pm 8 10 mph 1024mb 35f 40f
7:06pm 7 11 mph 1023.8mb 35f 40f
7:00pm 8 11 mph 1023.8mb 35f 41f
6:54pm 8 10 mph 1023.7mb 35f 41f
6:48pm 8 9 mph 1023.7mb 35f 41f
6:42pm 7 10 mph 1023.6mb 35f 41f
6:36pm 8 10 mph 1023.6mb 35f 41f
6:30pm 10 14 mph 1023.6mb 35f 42f
6:24pm 9 13 mph 1023.4mb 35f 42f
6:18pm 8 10 mph 1023.4mb 35f 42f
6:12pm 9 11 mph 1023.1mb 35f 42f
6:06pm 8 10 mph 1023mb 35f 42f
6:00pm 8 9 mph 1022.9mb 35f 42f
5:54pm 7 9 mph 1022.9mb 35f 42f
5:48pm 8 11 mph 1022.8mb 35f 42f
5:42pm 8 11 mph 1022.8mb 35f 42f
5:36pm 9 14 mph 1022.7mb 35f 42f
5:30pm 11 14 mph 1022.7mb 35f 42f
5:24pm 10 14 mph 1022.7mb 36f 42f
5:18pm 10 11 mph 1022.6mb 36f 42f
5:12pm 8 14 mph 1022.6mb 36f 41f
5:06pm 10 17 mph 1022.4mb 36f 41f
5:00pm 13 14 mph 1022.4mb 36f 41f
4:54pm 11 15 mph 1022.4mb 36f 41f
4:48pm 11 14 mph 1022.4mb 36f 41f
4:42pm 10 13 mph 1022.4mb 35f 41f
4:36pm 10 15 mph 1022.4mb 36f 41f
4:30pm 11 16 mph 1022.3mb 36f 41f
4:24pm 13 16 mph 1022.3mb 36f 41f
4:18pm 13 14 mph 1022.4mb 36f 41f
4:12pm 13 16 mph 1022.3mb 36f 41f
4:06pm 9 16 mph 1022.2mb 36f 41f
4:00pm 14 16 mph 1022.3mb 36f 41f
3:54pm 10 14 mph 1022.3mb 36f 41f
3:48pm 11 16 mph 1022.1mb 35f 41f
3:42pm 13 16 mph 1022.3mb 36f 41f
3:36pm 13 16 mph 1022.5mb 36f 41f
3:30pm 13 16 mph 1022.4mb 36f 41f
3:24pm 11 14 mph 1022.4mb 36f 41f
3:18pm 11 14 mph 1022.3mb 35f 41f
3:12pm 9 13 mph 1022.1mb 36f 40f
3:06pm 9 13 mph 1022.1mb 36f 40f
3:00pm 8 10 mph 1022mb 35f 40f
2:54pm 7 8 mph 1021.8mb 35f 40f
2:48pm 8 9 mph 1021.7mb 35f 39f
2:42pm 8 11 mph 1021.9mb 35f 40f
2:36pm 10 13 mph 1021.9mb 35f 39f
2:30pm 11 15 mph 1022mb 35f 39f
2:24pm 9 13 mph 1022mb 35f 39f
2:18pm 9 10 mph 1021.8mb 35f 39f
2:12pm 9 13 mph 1022mb 35f 38f
2:06pm 8 9 mph 1021.9mb 35f 38f
2:00pm 8 13 mph 1022mb 35f 38f
1:54pm 11 14 mph 1021.9mb 35f 38f
1:48pm 11 14 mph 1022.1mb 35f 38f
1:42pm 11 16 mph 1022mb 35f 38f
1:36pm 13 16 mph 1021.9mb 35f 38f
1:30pm 11 16 mph 1021.8mb 35f 38f
1:24pm 13 15 mph 1021.8mb 35f 38f
1:18pm 14 16 mph 1021.8mb 35f 39f
1:12pm 10 14 mph 1021.7mb 35f 39f
1:06pm 10 13 mph 1021.6mb 35f 38f
1:00pm 10 14 mph 1021.8mb 35f 38f
12:54pm 10 15 mph 1021.8mb 35f 38f
12:48pm 9 17 mph 1021.5mb 35f 38f
12:42pm 9 15 mph 1021.7mb 35f 38f
12:36pm 8 13 mph 1021.6mb 35f 38f
12:30pm 7 9 mph 1021.6mb 35f 38f
12:24pm 8 11 mph 1021.8mb 35f 38f
12:18pm 8 10 mph 1021.8mb 35f 38f
12:12pm 8 11 mph 1021.8mb 35f 38f
12:06pm 6 10 mph 1021.6mb 35f 38f
12:00pm 8 11 mph 1021.7mb 35f 38f
11:54am 6 15 mph 1021.8mb 35f 38f
11:48am 8 14 mph 1021.8mb 35f 38f
11:42am 7 9 mph 1021.7mb 35f 38f
11:36am 6 9 mph 1021.7mb 35f 37f
11:30am 7 9 mph 1021.8mb 35f 37f
11:24am 8 10 mph 1021.7mb 35f 37f
11:18am 8 10 mph 1021.8mb 35f 37f
11:12am 7 10 mph 1021.8mb 35f 36f
11:06am 9 11 mph 1021.9mb 35f 36f
11:00am 8 9 mph 1022.1mb 35f 36f
10:54am 8 9 mph 1022.1mb 35f 35f
10:48am 8 9 mph 1021.9mb 35f 35f
10:42am 8 9 mph 1021.9mb 35f 35f
10:36am 7 9 mph 1022mb 35f 35f
10:30am 6 10 mph 1021.9mb 35f 35f
10:24am 8 9 mph 1021.9mb 35f 35f
10:18am 8 10 mph 1022mb 35f 34f
10:12am 9 10 mph 1022mb 35f 34f
10:06am 7 9 mph 1021.8mb 35f 34f
10:00am 7 10 mph 1021.8mb 35f 34f
9:54am 8 10 mph 1021.9mb 34f 34f
9:48am 9 10 mph 1021.8mb 34f 34f
9:42am 9 10 mph 1021.8mb 34f 33f
9:36am 7 9 mph 1021.7mb 34f 33f
9:30am 9 10 mph 1021.6mb 34f 33f
9:24am 8 11 mph 1021.6mb 34f 33f
9:18am 9 11 mph 1021.5mb 34f 33f
9:12am 8 9 mph 1021.4mb 34f 33f
9:06am 6 11 mph 1021.4mb 35f 33f
9:00am 9 13 mph 1021.3mb 35f 33f
8:54am 9 11 mph 1021.4mb 35f 33f
8:48am 9 13 mph 1021.3mb 35f 33f
8:42am 9 14 mph 1021.1mb 34f 33f
8:36am 10 13 mph 1021.1mb 34f 32f
8:30am 9 14 mph 1021mb 34f 32f
8:24am 9 14 mph 1020.8mb 34f 32f
8:18am 8 11 mph 1020.7mb 35f 32f
8:12am 9 11 mph 1020.8mb 35f 32f
8:06am 9 11 mph 1020.8mb 35f 32f
8:00am 10 11 mph 1020.7mb 35f 32f
7:54am 10 13 mph 1020.5mb 35f 32f
7:48am 9 11 mph 1020.4mb 35f 32f
7:42am 9 10 mph 1020.3mb 35f 32f
7:36am 9 11 mph 1020.1mb 35f 31f
7:30am 10 11 mph 1020mb 35f 31f
7:24am 9 11 mph 1019.9mb 35f 31f
7:18am 9 11 mph 1019.8mb 35f 31f
7:12am 10 13 mph 1019.7mb 35f 31f
7:06am 9 11 mph 1019.7mb 35f 31f
7:00am 8 10 mph 1019.7mb 35f 31f
6:54am 9 10 mph 1019.8mb 35f 31f
6:48am 7 9 mph 1019.6mb 35f 31f
6:42am 9 11 mph 1019.5mb 35f 31f
6:36am 9 13 mph 1019.4mb 35f 31f
6:30am 10 11 mph 1019.3mb 35f 32f
6:24am 10 11 mph 1019mb 35f 32f
6:18am 10 11 mph 1019mb 35f 32f
6:12am 10
mph
1018.9mb 35f 32f
6:06am 8 10 mph 1018.8mb 35f 32f
6:00am 8 9 mph 1018.6mb 35f 32f
5:54am 6 8 mph 1018.3mb 35f 32f
5:48am 7 8 mph 1018.3mb 35f 32f
5:42am 7 8 mph 1018.3mb 35f 32f
5:36am 6 9 mph 1018.1mb 35f 32f
5:30am 8 11 mph 1018.2mb 35f 32f
5:24am 9 10 mph 1018mb 35f 32f
5:18am 8 10 mph 1017.6mb 35f 32f
5:12am 8 10 mph 1017.4mb 35f 32f
5:06am 7 9 mph 1017.2mb 35f 32f
5:00am 8 10 mph 1017.2mb 35f 32f
4:54am 9 11 mph 1017mb 35f 32f
4:48am 9 13 mph 1017mb 35f 32f
4:42am 10 11 mph 1016.8mb 35f 33f
4:36am 10 13 mph 1016.7mb 35f 33f
4:30am 9 11 mph 1016.7mb 35f 33f
4:24am 9 11 mph 1016.5mb 35f 33f
4:18am 8 13 mph 1016.6mb 35f 33f
4:12am 9 11 mph 1016.6mb 35f 33f
4:06am 10 11 mph 1016.7mb 35f 33f
4:00am 9 11 mph 1016.4mb 35f 33f
3:54am 9 13 mph 1016.4mb 35f 33f
3:48am 9 11 mph 1016.4mb 35f 33f
3:42am 10 14 mph 1016.3mb 35f 33f
3:36am 7 9 mph 1016mb 35f 33f
3:30am 8 11 mph 1016mb 35f 33f
3:24am 8 10 mph 1016mb 35f 33f
3:18am 8 9 mph 1015.9mb 35f 33f
3:12am 8 10 mph 1016mb 34f 33f
3:06am 9 11 mph 1015.9mb 34f 33f
3:00am 9 11 mph 1015.9mb 34f 33f
2:54am 11 13 mph 1016mb 35f 33f
2:48am 13 14 mph 1016.1mb 34f -
2:42am 10 11 mph 1016mb 35f -
2:36am 8 10 mph 1015.6mb 35f -
2:30am 9 10 mph 1015.5mb 35f 34f
2:24am 9 13 mph 1015.6mb 35f 34f
2:18am 10 13 mph 1015.7mb 35f 34f
2:12am 10 14 mph 1016.1mb 35f 34f
2:06am 11 15 mph 1016mb 35f 34f
2:00am 9 13 mph 1016mb 35f 34f
1:54am 9 13 mph 1015.7mb 35f 34f
1:48am 8 11 mph 1015.7mb 35f 34f
1:42am 9 11 mph 1016.1mb 35f 34f
1:36am 9 10 mph 1015.8mb 35f 34f
1:30am 8 11 mph 1015.8mb 35f 34f
1:24am 7 10 mph 1015.7mb 35f 34f
1:18am 7 8 mph 1015.6mb 35f 34f
1:12am 7 9 mph 1015.6mb 35f 35f
1:06am 7 13 mph 1015.6mb 35f 35f
1:00am 8 11 mph 1015.8mb 35f 35f
12:54am 8 13 mph 1015.9mb 35f 35f
12:48am 9 11 mph 1015.9mb 35f 35f
12:42am 10 11 mph 1016mb 35f 35f
12:36am 9 11 mph 1016.1mb 35f 35f
12:30am 8 10 mph 1016.1mb 35f 35f
12:24am 8 13 mph 1016mb 35f 35f
12:18am 9 13 mph 1016.1mb 35f 35f
12:12am 10 14 mph 1016.1mb 35f 35f
12:06am 9 11 mph 1015.9mb 34f 35f
12:00am 9 13 mph 1015.9mb 34f 35f
Fri 03/24 11:54pm 10 13 mph 1016mb 34f 36f
11:48pm 9 14 mph 1015.9mb 34f 35f
11:42pm 10 13 mph 1016.2mb 34f 36f
11:36pm 10 13 mph 1016.1mb 34f 36f
11:30pm 8 11 mph 1016.2mb 34f 36f
11:24pm 8 10 mph 1016.1mb 34f 36f
11:18pm 7 13 mph 1016.1mb 34f 36f
11:12pm 9 13 mph 1016.1mb 35f 36f
11:06pm 8 11 mph 1016mb 35f 36f
11:00pm 8 11 mph 1016mb 35f 36f
10:54pm 8 11 mph 1016mb 35f 36f
10:48pm 8 14 mph 1016mb 35f 36f
10:42pm 6 8 mph 1016.1mb 35f 37f
10:36pm 6 13 mph 1016.2mb 34f 37f
10:30pm 6 10 mph 1016.2mb 34f 37f
10:24pm 5 10 mph 1016.3mb 34f 37f
10:18pm 6 14 mph 1016.3mb 34f 37f
10:12pm 9 14 mph 1016.4mb 34f 37f
10:06pm 10 17 mph 1016.4mb 34f 37f
10:00pm 7 15 mph 1016.6mb 34f 37f
9:54pm 9 13 mph 1016.6mb 35f 37f
9:48pm 6 13 mph 1016.7mb 35f 37f
9:42pm 9 14 mph 1016.8mb 35f 37f
9:36pm 8 14 mph 1017.1mb 35f 37f
9:30pm 7 13 mph 1017.1mb 35f 36f
9:24pm 7 13 mph 1017.1mb 35f 36f
9:18pm 5 14 mph 1017.3mb 35f 36f
9:12pm 5 13 mph 1017.5mb 35f 36f
9:06pm 5 15 mph 1017.7mb 35f 36f
9:00pm 9 14 mph 1017.7mb 35f 36f
8:54pm 6 13 mph 1017.7mb 35f 36f
8:48pm 7 22 mph 1017.6mb 35f 36f
8:42pm 6 15 mph 1017.7mb 35f 36f
8:36pm 6 14 mph 1017.8mb 35f 35f
8:30pm 6 14 mph 1017.9mb 35f 35f
8:24pm 8 14 mph 1018mb 35f 35f
8:18pm 6 14 mph 1018mb 35f 35f
8:12pm 5 18 mph 1018.2mb 35f 35f
8:06pm 10 18 mph 1018.2mb 35f 35f
8:00pm 6 15 mph 1018.4mb 35f 35f
7:54pm 11 20 mph 1018.4mb 35f 35f